Time;durP1;ratioP1;P1;durP2;ratioP2;P2;SDS_P1;SDS_P2;PMS_P1;PMS_P2;Temp;Humidity;BMP_temperature;BMP_pressure;BME280_temperature;BME280_humidity;BME280_pressure;Samples;Min_cycle;Max_cycle;Signal;HPM_P1;HPM_P2
2023/03/01 00:01:29;;;;;;;1999.90;999.90;;;-1.80;99.90;;;;;;5107427;28;20770;-64
2023/03/01 00:03:56;;;;;;;1999.90;999.90;;;-1.90;99.90;;;;;;5122445;27;20426;-65
2023/03/01 00:06:23;;;;;;;1999.90;999.90;;;-2.00;99.90;;;;;;5112686;27;20520;-64
2023/03/01 00:08:50;;;;;;;1999.90;999.90;;;-2.10;99.90;;;;;;5113583;27;20436;-66
2023/03/01 00:11:20;;;;;;;1999.90;999.90;;;-2.10;99.90;;;;;;5120763;27;20424;-63
2023/03/01 00:13:49;;;;;;;1999.90;999.90;;;-2.00;99.90;;;;;;5112108;28;20839;-65
2023/03/01 00:16:18;;;;;;;1999.90;999.90;;;-1.70;99.90;;;;;;5117165;27;20461;-65
2023/03/01 00:18:45;;;;;;;1999.90;999.90;;;-1.90;99.90;;;;;;5111275;28;20929;-65
2023/03/01 00:21:12;;;;;;;1999.90;999.90;;;-1.90;99.90;;;;;;5132314;22;20438;-73
2023/03/01 00:23:39;;;;;;;1999.90;999.90;;;-1.90;99.90;;;;;;5094585;28;20482;-73
2023/03/01 00:26:08;;;;;;;1999.90;999.90;;;-1.90;99.90;;;;;;5095217;28;20479;-76
2023/03/01 00:28:36;;;;;;;1999.90;999.90;;;-1.80;99.90;;;;;;5096307;28;20471;-72
2023/03/01 00:31:07;;;;;;;1999.90;999.90;;;-1.70;99.90;;;;;;5088443;28;20848;-71
2023/03/01 00:33:34;;;;;;;1999.90;999.90;;;-1.60;99.90;;;;;;5065479;28;20451;-71
2023/03/01 00:36:02;;;;;;;1999.90;999.90;;;-1.60;99.90;;;;;;5070658;28;20419;-73
2023/03/01 00:38:29;;;;;;;1999.90;999.90;;;-1.50;99.90;;;;;;5069745;28;20434;-74
2023/03/01 00:40:55;;;;;;;1999.90;999.90;;;-1.80;99.90;;;;;;5074127;28;20434;-71
2023/03/01 00:43:22;;;;;;;1999.90;999.90;;;-1.80;99.90;;;;;;5074365;28;20439;-71
2023/03/01 00:45:51;;;;;;;1999.90;999.90;;;-2.00;99.90;;;;;;5073426;28;20458;-72
2023/03/01 00:48:18;;;;;;;1999.90;999.90;;;-2.00;99.90;;;;;;5074820;28;20450;-71
2023/03/01 00:50:46;;;;;;;1999.90;999.90;;;-2.00;99.90;;;;;;5073773;28;20992;-72
2023/03/01 00:53:13;;;;;;;1999.90;999.90;;;-1.80;99.90;;;;;;5073852;28;20427;-73
2023/03/01 00:55:40;;;;;;;1999.90;999.90;;;-1.80;99.90;;;;;;5074592;28;20943;-73
2023/03/01 00:58:06;;;;;;;1999.90;999.90;;;-1.90;99.90;;;;;;5071673;28;20439;-74
2023/03/01 01:00:34;;;;;;;1999.90;999.90;;;-1.90;99.90;;;;;;5074342;28;20924;-75
2023/03/01 01:03:02;;;;;;;1999.90;999.90;;;-1.70;99.90;;;;;;5073197;28;20447;-73
2023/03/01 01:05:28;;;;;;;1999.90;999.90;;;-1.50;99.90;;;;;;5075545;28;20925;-70
2023/03/01 01:07:55;;;;;;;1999.90;999.90;;;-1.50;99.90;;;;;;5074282;28;20431;-72
2023/03/01 01:10:31;;;;;;;1999.90;999.90;;;-1.50;99.90;;;;;;5071926;28;20472;-72
2023/03/01 01:12:58;;;;;;;1999.90;999.90;;;-1.60;99.90;;;;;;5071907;28;20897;-71
2023/03/01 01:15:25;;;;;;;1999.90;999.90;;;-1.60;99.90;;;;;;5075485;28;20457;-75
2023/03/01 01:17:52;;;;;;;1999.90;999.90;;;-1.80;99.90;;;;;;5073923;28;20493;-73
2023/03/01 01:20:20;;;;;;;1999.90;999.90;;;-2.00;99.90;;;;;;5074836;28;20463;-71
2023/03/01 01:22:46;;;;;;;1999.90;999.90;;;-2.00;99.90;;;;;;5074046;28;20427;-72
2023/03/01 01:25:13;;;;;;;1999.90;999.90;;;-2.10;99.90;;;;;;5072222;28;20427;-74
2023/03/01 01:27:40;;;;;;;1999.90;999.90;;;-2.20;99.90;;;;;;5075434;28;20485;-73
2023/03/01 01:30:08;;;;;;;1999.90;999.90;;;-2.10;99.90;;;;;;5073933;28;20438;-77
2023/03/01 01:32:35;;;;;;;1999.90;999.90;;;-2.10;99.90;;;;;;5074930;28;20432;-75
2023/03/01 01:35:02;;;;;;;1999.90;999.90;;;-2.20;99.90;;;;;;5072886;28;20458;-75
2023/03/01 01:37:31;;;;;;;1999.90;999.90;;;-2.30;99.90;;;;;;5074907;28;20434;-73
2023/03/01 01:39:59;;;;;;;1999.90;999.90;;;-2.30;99.90;;;;;;5074681;28;20438;-73
2023/03/01 01:42:27;;;;;;;1999.90;999.90;;;-2.40;99.90;;;;;;5077835;28;20514;-72
2023/03/01 01:45:28;;;;;;;1999.90;999.90;;;-2.30;99.90;;;;;;5078066;28;20436;-73
2023/03/01 01:47:59;;;;;;;1999.90;999.90;;;-2.20;99.90;;;;;;5074509;28;20427;-74
2023/03/01 01:50:26;;;;;;;1999.90;999.90;;;-2.30;99.90;;;;;;5080066;28;20461;-73
2023/03/01 01:52:55;;;;;;;1999.90;999.90;;;-2.20;99.90;;;;;;5077791;28;20419;-72
2023/03/01 01:55:27;;;;;;;1999.90;999.90;;;-2.40;99.90;;;;;;5078533;28;20438;-72
2023/03/01 01:57:58;;;;;;;1999.90;999.90;;;-2.60;99.90;;;;;;5077947;28;20435;-73
2023/03/01 02:00:27;;;;;;;1999.90;999.90;;;-2.60;99.90;;;;;;5077221;28;20431;-75
2023/03/01 02:02:58;;;;;;;1999.90;999.90;;;-2.60;99.90;;;;;;5077009;28;20431;-72
2023/03/01 02:05:29;;;;;;;1999.90;999.90;;;-2.60;99.90;;;;;;5078136;28;20438;-73
2023/03/01 02:07:58;;;;;;;1999.90;999.90;;;-2.70;99.90;;;;;;5076736;28;20461;-73
2023/03/01 02:10:26;;;;;;;1999.90;999.90;;;-2.60;99.90;;;;;;5075635;28;20504;-71
2023/03/01 02:12:54;;;;;;;1999.90;999.90;;;-2.70;99.90;;;;;;5076777;28;20496;-74
2023/03/01 02:15:21;;;;;;;1999.90;999.90;;;-2.70;99.90;;;;;;5076874;28;20435;-73
2023/03/01 02:17:48;;;;;;;1999.90;999.90;;;-2.70;99.90;;;;;;5078493;28;20427;-76
2023/03/01 02:20:31;;;;;;;1999.90;999.90;;;-2.80;99.90;;;;;;5077570;28;20965;-75
2023/03/01 02:22:59;;;;;;;1999.90;999.90;;;-2.80;99.90;;;;;;5073992;28;20434;-73
2023/03/01 02:25:35;;;;;;;1999.90;999.90;;;-2.70;99.90;;;;;;5076383;28;20978;-73
2023/03/01 02:28:11;;;;;;;1999.90;999.90;;;-2.50;99.90;;;;;;5078243;28;20454;-75
2023/03/01 02:31:41;;;;;;;1999.90;999.90;;;-2.40;99.90;;;;;;5074509;28;20434;-72
2023/03/01 02:33:26;;;;;;;1999.90;999.90;;;-2.00;99.90;;;;;;5076461;28;20411;-72
2023/03/01 02:35:55;;;;;;;1999.90;999.90;;;-2.20;99.90;;;;;;5076650;28;20454;-72
2023/03/01 02:38:23;;;;;;;1999.90;999.90;;;-2.10;99.90;;;;;;5077346;28;20913;-72
2023/03/01 02:40:51;;;;;;;1999.90;999.90;;;-2.20;99.90;;;;;;5077906;28;20420;-75
2023/03/01 02:43:20;;;;;;;1999.90;999.90;;;-2.20;99.90;;;;;;5076308;28;20517;-73
2023/03/01 02:45:52;;;;;;;1999.90;999.90;;;-2.30;99.90;;;;;;5076819;28;20435;-72
2023/03/01 02:48:19;;;;;;;1999.90;999.90;;;-2.40;99.90;;;;;;5075751;28;20431;-72
2023/03/01 02:50:57;;;;;;;1999.90;999.90;;;-2.40;99.90;;;;;;5077212;28;20431;-72
2023/03/01 02:53:35;;;;;;;1999.90;999.90;;;-2.30;99.90;;;;;;5076373;28;20474;-74
2023/03/01 02:56:02;;;;;;;1999.90;999.90;;;-2.40;99.90;;;;;;5076462;28;20442;-72
2023/03/01 02:58:29;;;;;;;1999.90;999.90;;;-2.40;99.90;;;;;;5076637;28;20522;-74
2023/03/01 03:01:00;;;;;;;1999.90;999.90;;;-2.50;99.90;;;;;;5076015;28;20944;-72
2023/03/01 03:03:27;;;;;;;1999.90;999.90;;;-2.50;99.90;;;;;;5075570;28;20427;-73
2023/03/01 03:05:54;;;;;;;1999.90;999.90;;;-2.70;99.90;;;;;;5077941;28;20442;-74
2023/03/01 03:08:23;;;;;;;1999.90;999.90;;;-2.90;99.90;;;;;;5077396;28;20469;-70
2023/03/01 03:10:50;;;;;;;1999.90;999.90;;;-3.10;99.90;;;;;;5075647;28;20431;-73
2023/03/01 03:13:18;;;;;;;1999.90;999.90;;;-3.10;99.90;;;;;;5076615;28;20438;-73
2023/03/01 03:15:44;;;;;;;1999.90;999.90;;;-3.00;99.90;;;;;;5076505;28;20790;-74
2023/03/01 03:18:15;;;;;;;1999.90;999.90;;;-2.90;99.90;;;;;;5073946;28;20508;-73
2023/03/01 03:20:44;;;;;;;1999.90;999.90;;;-2.80;99.90;;;;;;5077775;28;20439;-76
2023/03/01 03:23:11;;;;;;;1999.90;999.90;;;-2.70;99.90;;;;;;5076772;28;21844;-73
2023/03/01 03:25:38;;;;;;;1999.90;999.90;;;-2.70;99.90;;;;;;5077535;28;20431;-74
2023/03/01 03:28:09;;;;;;;1999.90;999.90;;;-2.70;99.90;;;;;;5076732;28;20518;-73
2023/03/01 03:30:38;;;;;;;1999.90;999.90;;;-2.70;99.90;;;;;;5075461;28;20431;-73
2023/03/01 03:33:07;;;;;;;1999.90;999.90;;;-2.70;99.90;;;;;;5074896;28;20455;-73
2023/03/01 03:35:40;;;;;;;1999.90;999.90;;;-2.60;99.90;;;;;;5077157;28;20439;-73
2023/03/01 03:38:15;;;;;;;1999.90;999.90;;;-2.90;99.90;;;;;;5076325;28;20435;-74
2023/03/01 03:40:44;;;;;;;1999.90;999.90;;;-2.50;99.90;;;;;;5073450;28;20939;-74
2023/03/01 03:43:13;;;;;;;1999.90;999.90;;;-2.50;99.90;;;;;;5075728;28;20492;-73
2023/03/01 03:45:40;;;;;;;1999.90;999.90;;;-2.50;99.90;;;;;;5071710;28;20433;-73
2023/03/01 03:48:10;;;;;;;1999.90;999.90;;;-2.70;99.90;;;;;;5075673;28;20440;-73
2023/03/01 03:50:38;;;;;;;1999.90;999.90;;;-2.80;99.90;;;;;;5076561;28;20478;-73
2023/03/01 03:53:07;;;;;;;1999.90;999.90;;;-2.80;99.90;;;;;;5074216;28;20423;-73
2023/03/01 03:55:34;;;;;;;1999.90;999.90;;;-2.80;99.90;;;;;;5077664;28;20453;-71
2023/03/01 03:58:06;;;;;;;1999.90;999.90;;;-2.80;99.90;;;;;;5076834;28;20453;-73
2023/03/01 04:00:34;;;;;;;1999.90;999.90;;;-2.70;99.90;;;;;;5072499;28;20446;-73
2023/03/01 04:03:01;;;;;;;1999.90;999.90;;;-3.10;99.90;;;;;;5074794;28;20427;-72
2023/03/01 04:05:28;;;;;;;1999.90;999.90;;;-3.10;99.90;;;;;;5072819;28;20797;-74
2023/03/01 04:08:01;;;;;;;1999.90;999.90;;;-3.00;99.90;;;;;;5075999;28;20435;-73
2023/03/01 04:10:29;;;;;;;1999.90;999.90;;;-2.90;99.90;;;;;;5074466;28;20477;-77
2023/03/01 04:12:56;;;;;;;1999.90;999.90;;;-2.80;99.90;;;;;;5075884;28;20432;-73
2023/03/01 04:15:24;;;;;;;1999.90;999.90;;;-2.70;99.90;;;;;;5075842;28;20435;-74
2023/03/01 04:17:53;;;;;;;1999.90;999.90;;;-2.80;99.90;;;;;;5076348;28;20457;-74
2023/03/01 04:20:24;;;;;;;1999.90;999.90;;;-3.00;99.90;;;;;;5074321;28;20432;-73
2023/03/01 04:22:52;;;;;;;1999.90;999.90;;;-3.00;99.90;;;;;;5074380;28;20480;-72
2023/03/01 04:25:20;;;;;;;1999.90;999.90;;;-3.00;99.90;;;;;;5075592;28;20431;-72
2023/03/01 04:27:47;;;;;;;1999.90;999.90;;;-3.00;99.90;;;;;;5076316;28;20426;-73
2023/03/01 04:30:14;;;;;;;1999.90;999.90;;;-3.10;99.90;;;;;;5074795;28;20434;-74
2023/03/01 04:32:41;;;;;;;1999.90;999.90;;;-3.10;99.90;;;;;;5077639;28;21014;-73
2023/03/01 04:35:09;;;;;;;1999.90;999.90;;;-3.10;99.90;;;;;;5062271;28;20413;-72
2023/03/01 04:37:36;;;;;;;1999.90;999.90;;;-3.00;99.90;;;;;;5075275;28;20504;-71
2023/03/01 04:40:12;;;;;;;1999.90;999.90;;;-3.00;99.90;;;;;;5074902;28;20439;-73
2023/03/01 04:42:40;;;;;;;1999.90;999.90;;;-3.00;99.90;;;;;;5075130;28;20481;-75
2023/03/01 04:45:12;;;;;;;1999.90;999.90;;;-3.20;99.90;;;;;;5075881;28;20443;-74
2023/03/01 04:47:40;;;;;;;1999.90;999.90;;;-2.80;99.90;;;;;;5075160;28;20441;-73
2023/03/01 04:50:08;;;;;;;1999.90;999.90;;;-2.90;99.90;;;;;;5072933;28;20428;-73
2023/03/01 04:52:35;;;;;;;1999.90;999.90;;;-2.90;99.90;;;;;;5074222;28;20423;-74
2023/03/01 04:55:03;;;;;;;1999.90;999.90;;;-2.90;99.90;;;;;;5074314;28;20920;-71
2023/03/01 04:57:30;;;;;;;1999.90;999.90;;;-2.80;99.90;;;;;;5075173;28;20470;-76
2023/03/01 04:59:58;;;;;;;1999.90;999.90;;;-2.80;99.90;;;;;;5074807;28;20928;-75
2023/03/01 05:02:25;;;;;;;1999.90;999.90;;;-2.90;99.90;;;;;;5072304;28;20435;-75
2023/03/01 05:04:52;;;;;;;1999.90;999.90;;;-3.10;99.90;;;;;;5072955;28;20439;-70
2023/03/01 05:07:19;;;;;;;1999.90;999.90;;;-2.60;99.90;;;;;;5073931;28;20441;-73
2023/03/01 05:09:46;;;;;;;1999.90;999.90;;;-3.10;99.90;;;;;;5070370;28;20503;-75
2023/03/01 05:12:13;;;;;;;1999.90;999.90;;;-3.10;99.90;;;;;;5074510;28;20454;-69
2023/03/01 05:14:40;;;;;;;1999.90;999.90;;;-3.10;99.90;;;;;;5075195;28;20505;-73
2023/03/01 05:17:09;;;;;;;1999.90;999.90;;;-3.10;99.90;;;;;;5076174;28;20929;-72
2023/03/01 05:19:36;;;;;;;1999.90;999.90;;;-2.70;99.90;;;;;;5079106;28;20419;-72
2023/03/01 05:22:03;;;;;;;1999.90;999.90;;;-3.10;99.90;;;;;;5077843;28;20427;-73
2023/03/01 05:24:31;;;;;;;1999.90;999.90;;;-3.00;99.90;;;;;;5077585;28;20494;-72
2023/03/01 05:26:59;;;;;;;1999.90;999.90;;;-3.10;99.90;;;;;;5077770;28;20446;-77
2023/03/01 05:29:28;;;;;;;1999.90;999.90;;;-3.20;99.90;;;;;;5077297;28;20852;-75
2023/03/01 05:31:56;;;;;;;1999.90;999.90;;;-3.10;99.90;;;;;;5077780;28;20429;-73
2023/03/01 05:34:26;;;;;;;1999.90;999.90;;;-3.20;99.90;;;;;;5077381;28;20830;-76
2023/03/01 05:36:54;;;;;;;1999.90;999.90;;;-3.10;99.90;;;;;;5079076;28;20936;-73
2023/03/01 05:39:22;;;;;;;1999.90;999.90;;;-3.00;99.90;;;;;;5077208;28;20478;-74
2023/03/01 05:41:49;;;;;;;1999.90;999.90;;;-3.10;99.90;;;;;;5072377;28;20458;-73
2023/03/01 05:44:15;;;;;;;1999.90;999.90;;;-3.10;99.90;;;;;;5076299;28;20427;-73
2023/03/01 05:46:42;;;;;;;1999.90;999.90;;;-2.80;99.90;;;;;;5077230;28;20840;-72
2023/03/01 05:49:09;;;;;;;1999.90;999.90;;;-3.30;99.90;;;;;;5076975;28;20435;-74
2023/03/01 05:51:37;;;;;;;1999.90;999.90;;;-3.30;99.90;;;;;;5076713;28;20462;-73
2023/03/01 05:54:05;;;;;;;1999.90;999.90;;;-3.30;99.90;;;;;;5077559;28;20909;-73
2023/03/01 05:56:34;;;;;;;1999.90;999.90;;;-3.30;99.90;;;;;;5077273;28;20522;-73
2023/03/01 05:59:01;;;;;;;1999.90;999.90;;;-3.30;99.90;;;;;;5077415;28;20434;-72
2023/03/01 06:01:27;;;;;;;1999.90;999.90;;;-3.40;99.90;;;;;;5077374;28;20423;-72
2023/03/01 06:03:54;;;;;;;1999.90;999.90;;;-3.40;99.90;;;;;;5077309;28;20430;-73
2023/03/01 06:06:21;;;;;;;1999.90;999.90;;;-3.30;99.90;;;;;;5076880;28;20449;-73
2023/03/01 06:08:49;;;;;;;1999.90;999.90;;;-3.10;99.90;;;;;;5077986;28;20438;-73
2023/03/01 06:11:16;;;;;;;1999.90;999.90;;;-3.30;99.90;;;;;;5075971;28;20446;-74
2023/03/01 06:13:43;;;;;;;1999.90;999.90;;;-3.30;99.90;;;;;;5076177;28;20484;-74
2023/03/01 06:16:10;;;;;;;1999.90;999.90;;;-3.30;99.90;;;;;;5076791;28;20431;-73
2023/03/01 06:18:37;;;;;;;1999.90;999.90;;;-3.20;99.90;;;;;;5078301;28;20435;-73
2023/03/01 06:21:05;;;;;;;1999.90;999.90;;;-3.40;99.90;;;;;;5077498;28;20443;-72
2023/03/01 06:23:32;;;;;;;1999.90;999.90;;;-3.40;99.90;;;;;;5076196;28;20499;-75
2023/03/01 06:26:00;;;;;;;1999.90;999.90;;;-3.40;99.90;;;;;;5108316;22;20430;-67
2023/03/01 06:28:27;;;;;;;1999.90;999.90;;;-2.80;99.90;;;;;;5094983;28;20487;-64
2023/03/01 06:30:54;;;;;;;1999.90;999.90;;;-3.40;99.90;;;;;;5106180;28;20583;-67
2023/03/01 06:33:23;;;;;;;1999.90;999.90;;;-3.40;99.90;;;;;;5104016;28;20497;-67
2023/03/01 06:35:50;;;;;;;1999.90;999.90;;;-3.40;99.90;;;;;;5101937;28;20452;-65
2023/03/01 06:38:18;;;;;;;1999.90;999.90;;;-2.80;99.90;;;;;;5095475;28;20443;-67
2023/03/01 06:40:46;;;;;;;1999.90;999.90;;;-3.20;99.90;;;;;;5095063;28;20442;-66
2023/03/01 06:43:14;;;;;;;1999.90;999.90;;;-3.00;99.90;;;;;;5097570;28;20428;-67
2023/03/01 06:45:41;;;;;;;1999.90;999.90;;;-2.40;99.90;;;;;;5097208;28;20780;-65
2023/03/01 06:48:08;;;;;;;1999.90;999.90;;;-2.80;99.90;;;;;;5091693;28;20426;-68
2023/03/01 06:50:36;;;;;;;1999.90;999.90;;;-2.70;99.90;;;;;;5094528;28;20503;-68
2023/03/01 06:53:03;;;;;;;1999.90;999.90;;;-2.70;99.90;;;;;;5099165;28;20430;-66
2023/03/01 06:55:30;;;;;;;1999.90;999.90;;;-2.80;99.90;;;;;;5091722;28;20838;-68
2023/03/01 06:57:57;;;;;;;1999.90;999.90;;;-2.60;99.90;;;;;;5099004;28;20460;-68
2023/03/01 07:00:26;;;;;;;1999.90;999.90;;;-2.50;99.90;;;;;;5092840;28;20425;-66
2023/03/01 07:02:54;;;;;;;1999.90;999.90;;;-2.30;99.90;;;;;;5092937;28;20425;-69
2023/03/01 07:05:21;;;;;;;1999.90;999.90;;;-2.20;99.90;;;;;;5096514;28;20427;-70
2023/03/01 07:07:47;;;;;;;1999.90;999.90;;;-2.10;99.90;;;;;;5109859;28;20841;-70
2023/03/01 07:10:14;;;;;;;1999.90;999.90;;;-1.80;99.90;;;;;;5098486;28;20941;-68
2023/03/01 07:12:42;;;;;;;1999.90;999.90;;;-1.70;99.90;;;;;;5101237;28;20915;-68
2023/03/01 07:15:11;;;;;;;1999.90;999.90;;;-1.50;99.90;;;;;;5099992;28;20805;-69
2023/03/01 07:17:39;;;;;;;1999.90;999.90;;;-1.30;99.90;;;;;;5098499;28;20425;-69
2023/03/01 07:20:06;;;;;;;1999.90;999.90;;;-1.30;99.90;;;;;;5108899;28;20706;-70
2023/03/01 07:22:33;;;;;;;1999.90;999.90;;;-1.30;99.90;;;;;;5091471;28;20430;-68
2023/03/01 07:24:59;;;;;;;1999.90;999.90;;;-1.20;99.90;;;;;;5092056;28;20466;-66
2023/03/01 07:27:26;;;;;;;1999.90;999.90;;;-0.50;99.90;;;;;;5092021;28;20429;-70
2023/03/01 07:29:53;;;;;;;1999.90;999.90;;;-0.60;99.90;;;;;;5094973;28;20436;-70
2023/03/01 07:32:19;;;;;;;1999.90;999.90;;;-0.40;99.90;;;;;;5099319;28;20457;-70
2023/03/01 07:34:47;;;;;;;1999.90;999.90;;;0.00;99.90;;;;;;5098902;28;20422;-69
2023/03/01 07:37:14;;;;;;;1999.90;999.90;;;0.20;99.90;;;;;;5091139;28;20426;-69
2023/03/01 07:39:41;;;;;;;1999.90;999.90;;;0.70;99.90;;;;;;5091323;28;20441;-69
2023/03/01 07:42:08;;;;;;;1999.90;999.90;;;0.30;99.90;;;;;;5085693;28;20497;-70
2023/03/01 07:44:35;;;;;;;1999.90;999.90;;;0.50;99.90;;;;;;5089118;28;20466;-68
2023/03/01 07:47:02;;;;;;;1999.90;999.90;;;0.80;99.90;;;;;;5088792;28;20434;-70
2023/03/01 07:49:28;;;;;;;1999.90;999.90;;;1.30;99.90;;;;;;5090431;28;20459;-68
2023/03/01 07:51:56;;;;;;;1999.90;999.90;;;1.70;99.90;;;;;;5090531;28;20832;-68
2023/03/01 07:54:23;;;;;;;1999.90;999.90;;;1.80;99.90;;;;;;5090391;28;20422;-68
2023/03/01 07:56:50;;;;;;;1999.90;999.90;;;1.90;99.90;;;;;;5097455;28;20426;-68
2023/03/01 07:59:16;;;;;;;1999.90;999.90;;;2.00;99.90;;;;;;5089916;28;20460;-69
2023/03/01 08:01:43;;;;;;;1999.90;999.90;;;2.20;99.90;;;;;;5087174;28;20490;-67
2023/03/01 08:04:10;;;;;;;1999.90;999.90;;;2.40;99.90;;;;;;5083963;28;20426;-68
2023/03/01 08:06:37;;;;;;;1999.90;999.90;;;2.70;99.90;;;;;;5084780;28;20427;-67
2023/03/01 08:09:05;;;;;;;1999.90;999.90;;;2.90;99.90;;;;;;5093721;28;20501;-65
2023/03/01 08:11:31;;;;;;;1999.90;999.90;;;3.20;99.90;;;;;;5090387;28;20487;-68
2023/03/01 08:13:58;;;;;;;1999.90;999.90;;;3.20;99.90;;;;;;5083201;28;20443;-70
2023/03/01 08:16:25;;;;;;;1999.90;999.90;;;3.40;99.90;;;;;;5086557;28;20437;-71
2023/03/01 08:18:51;;;;;;;1999.90;999.90;;;3.60;99.90;;;;;;5098790;28;20463;-70
2023/03/01 08:21:19;;;;;;;1999.90;999.90;;;3.50;99.90;;;;;;5091998;28;20429;-70
2023/03/01 08:23:46;;;;;;;1999.90;999.90;;;3.60;99.90;;;;;;5088023;28;20901;-71
2023/03/01 08:26:15;;;;;;;1999.90;999.90;;;3.70;99.90;;;;;;5086682;28;20915;-69
2023/03/01 08:28:42;;;;;;;1999.90;999.90;;;3.80;99.90;;;;;;5099151;28;20476;-70
2023/03/01 08:31:16;;;;;;;1999.90;999.90;;;3.90;99.90;;;;;;5094010;28;20426;-71
2023/03/01 08:33:43;;;;;;;1999.90;999.90;;;4.00;99.90;;;;;;5091227;28;20455;-69
2023/03/01 08:36:10;;;;;;;1999.90;999.90;;;4.10;99.90;;;;;;5091587;28;20464;-70
2023/03/01 08:38:36;;;;;;;1999.90;999.90;;;4.10;99.90;;;;;;5087034;28;20487;-68
2023/03/01 08:41:04;;;;;;;1999.90;999.90;;;4.30;99.90;;;;;;5090227;28;20491;-69
2023/03/01 08:43:32;;;;;;;1999.90;999.90;;;4.60;99.90;;;;;;5091319;28;20425;-68
2023/03/01 08:45:59;;;;;;;1999.90;999.90;;;4.30;99.90;;;;;;5090577;28;20428;-69
2023/03/01 08:48:25;;;;;;;1999.90;999.90;;;4.30;99.90;;;;;;5086669;28;20433;-70
2023/03/01 08:50:52;;;;;;;1999.90;999.90;;;4.40;99.90;;;;;;5086367;28;20429;-70
2023/03/01 08:53:19;;;;;;;1999.90;999.90;;;4.50;99.90;;;;;;5087320;28;20991;-70
2023/03/01 08:55:46;;;;;;;1999.90;999.90;;;4.40;99.90;;;;;;5085049;28;20422;-70
2023/03/01 08:58:12;;;;;;;1999.90;999.90;;;4.60;99.90;;;;;;5093046;28;20409;-69
2023/03/01 09:00:40;;;;;;;1999.90;999.90;;;4.70;99.90;;;;;;5094003;28;20504;-69
2023/03/01 09:03:07;;;;;;;1999.90;999.90;;;4.90;99.90;;;;;;5089059;28;20508;-71
2023/03/01 09:05:36;;;;;;;1999.90;999.90;;;4.80;99.90;;;;;;5091726;28;20418;-71
2023/03/01 09:08:03;;;;;;;1999.90;999.90;;;4.70;99.90;;;;;;5086384;28;20434;-73
2023/03/01 09:10:29;;;;;;;1999.90;999.90;;;4.70;99.90;;;;;;5087597;28;20426;-70
2023/03/01 09:12:56;;;;;;;1999.90;999.90;;;4.90;99.90;;;;;;5087031;28;20433;-70
2023/03/01 09:15:23;;;;;;;1999.90;999.90;;;5.00;99.90;;;;;;5088555;28;20429;-69
2023/03/01 09:17:51;;;;;;;1999.90;999.90;;;5.10;99.90;;;;;;5084791;28;20452;-71
2023/03/01 09:20:18;;;;;;;1999.90;999.90;;;5.10;99.90;;;;;;5087008;28;20931;-70
2023/03/01 09:22:45;;;;;;;1999.90;999.90;;;5.00;99.90;;;;;;5087671;28;20425;-69
2023/03/01 09:25:11;;;;;;;1999.90;999.90;;;4.90;99.90;;;;;;5090360;28;20426;-70
2023/03/01 09:27:38;;;;;;;1999.90;999.90;;;4.90;99.90;;;;;;5086135;28;20436;-70
2023/03/01 09:30:06;;;;;;;1999.90;999.90;;;4.90;99.90;;;;;;5087583;28;20490;-70
2023/03/01 09:32:32;;;;;;;1999.90;999.90;;;4.90;99.90;;;;;;5085769;28;20479;-70
2023/03/01 09:35:04;;;;;;;1999.90;999.90;;;4.80;99.90;;;;;;5087538;28;20426;-69
2023/03/01 09:37:31;;;;;;;1999.90;999.90;;;4.80;99.90;;;;;;5086137;28;20916;-70
2023/03/01 09:39:58;;;;;;;1999.90;999.90;;;5.00;99.90;;;;;;5089622;28;20850;-67
2023/03/01 09:42:25;;;;;;;1999.90;999.90;;;4.80;99.90;;;;;;5093752;28;20937;-70
2023/03/01 09:44:57;;;;;;;1999.90;999.90;;;4.90;99.90;;;;;;5085269;28;20426;-72
2023/03/01 09:47:26;;;;;;;1999.90;999.90;;;4.90;99.90;;;;;;5085980;28;20514;-69
2023/03/01 09:50:02;;;;;;;1999.90;999.90;;;5.20;99.90;;;;;;5091524;28;20495;-70
2023/03/01 09:52:37;;;;;;;1999.90;999.90;;;5.20;99.90;;;;;;5087092;28;20516;-71
2023/03/01 09:55:11;;;;;;;1999.90;999.90;;;5.50;99.90;;;;;;5090800;28;20471;-69
2023/03/01 09:57:44;;;;;;;1999.90;999.90;;;5.30;99.90;;;;;;5085183;28;20978;-69
2023/03/01 10:00:19;;;;;;;1999.90;999.90;;;5.10;99.90;;;;;;5084637;28;20546;-70
2023/03/01 10:02:50;;;;;;;1999.90;999.90;;;5.20;99.90;;;;;;5093174;28;20418;-71
2023/03/01 10:05:34;;;;;;;1999.90;999.90;;;5.20;99.90;;;;;;5095295;28;20414;-70
2023/03/01 10:08:27;;;;;;;1999.90;999.90;;;5.20;99.90;;;;;;5095206;28;20479;-69
2023/03/01 10:10:54;;;;;;;1999.90;999.90;;;5.10;99.90;;;;;;5094438;28;20430;-68
2023/03/01 10:13:26;;;;;;;1999.90;999.90;;;5.00;99.90;;;;;;5085818;28;20498;-70
2023/03/01 10:15:57;;;;;;;1999.90;999.90;;;4.90;99.90;;;;;;5074671;28;20461;-70
2023/03/01 10:18:27;;;;;;;1999.90;999.90;;;5.00;99.90;;;;;;5074750;28;20426;-70
2023/03/01 10:20:58;;;;;;;1999.90;999.90;;;5.10;99.90;;;;;;5074377;28;20504;-69
2023/03/01 10:23:25;;;;;;;1999.90;999.90;;;5.10;99.90;;;;;;5090545;28;21080;-69
2023/03/01 10:26:11;;;;;;;1999.90;999.90;;;5.20;99.90;;;;;;5081130;28;20476;-70
2023/03/01 10:28:49;;;;;;;1999.90;999.90;;;5.30;99.90;;;;;;5074496;28;20430;-70
2023/03/01 10:31:19;;;;;;;1999.90;999.90;;;5.80;99.90;;;;;;5093578;28;20776;-69
2023/03/01 10:33:47;;;;;;;1999.90;999.90;;;5.40;99.90;;;;;;5092469;28;20915;-70
2023/03/01 10:36:15;;;;;;;1999.90;999.90;;;5.40;99.90;;;;;;5093523;28;20431;-68
2023/03/01 10:38:52;;;;;;;1999.90;999.90;;;5.40;99.90;;;;;;5091954;28;20841;-70
2023/03/01 10:41:19;;;;;;;1999.90;999.90;;;5.50;99.90;;;;;;5094803;28;20420;-68
2023/03/01 10:43:47;;;;;;;1999.90;999.90;;;5.30;99.90;;;;;;5094724;28;20418;-68
2023/03/01 10:46:24;;;;;;;1999.90;999.90;;;5.40;99.90;;;;;;5091786;28;20426;-68
2023/03/01 10:49:08;;;;;;;1999.90;999.90;;;5.20;99.90;;;;;;5094389;28;20410;-68
2023/03/01 10:51:36;;;;;;;1999.90;999.90;;;5.10;99.90;;;;;;5093705;28;20493;-69
2023/03/01 10:54:04;;;;;;;1999.90;999.90;;;5.20;99.90;;;;;;5092332;28;20422;-69
2023/03/01 10:56:48;;;;;;;1999.90;999.90;;;5.20;99.90;;;;;;5091307;28;20790;-70
2023/03/01 10:59:25;;;;;;;1999.90;999.90;;;5.30;99.90;;;;;;5094876;28;20493;-68
2023/03/01 11:02:05;;;;;;;1999.90;999.90;;;5.30;99.90;;;;;;5094682;28;20435;-68
2023/03/01 11:04:32;;;;;;;1999.90;999.90;;;5.30;99.90;;;;;;5093992;28;20475;-70
2023/03/01 11:07:02;;;;;;;1999.90;999.90;;;5.80;99.90;;;;;;5092860;28;20438;-70
2023/03/01 11:09:37;;;;;;;1999.90;999.90;;;6.60;99.90;;;;;;5092062;28;20830;-70
2023/03/01 11:12:06;;;;;;;1999.90;999.90;;;6.80;98.30;;;;;;5088483;28;20437;-68
2023/03/01 11:14:36;;;;;;;1999.90;999.90;;;6.80;99.10;;;;;;5092103;28;20425;-71
2023/03/01 11:17:05;;;;;;;1999.90;999.90;;;6.60;98.40;;;;;;5093475;28;20923;-68
2023/03/01 11:19:33;;;;;;;1999.90;999.90;;;6.80;99.30;;;;;;5093343;28;20430;-68
2023/03/01 11:22:05;;;;;;;1999.90;999.90;;;7.10;98.50;;;;;;5092158;28;20487;-68
2023/03/01 11:24:38;;;;;;;1999.90;999.90;;;7.40;97.20;;;;;;5091593;28;20768;-68
2023/03/01 11:27:15;;;;;;;1999.90;999.90;;;7.70;97.20;;;;;;5073773;28;20437;-66
2023/03/01 11:29:46;;;;;;;1999.90;999.90;;;7.70;96.80;;;;;;5089763;28;20461;-68
2023/03/01 11:32:15;;;;;;;1999.90;999.90;;;7.50;97.50;;;;;;5077723;28;20416;-68
2023/03/01 11:34:47;;;;;;;1999.90;999.90;;;7.10;98.10;;;;;;5073454;28;20485;-68
2023/03/01 11:37:27;;;;;;;1999.90;999.90;;;6.90;98.70;;;;;;5073710;28;20836;-68
2023/03/01 11:40:00;;;;;;;1999.90;999.90;;;7.00;99.00;;;;;;5073423;28;20860;-69
2023/03/01 11:42:37;;;;;;;1999.90;999.90;;;7.10;98.80;;;;;;5091830;28;20481;-68
2023/03/01 11:45:09;;;;;;;1999.90;999.90;;;6.90;97.90;;;;;;5093516;28;20479;-67
2023/03/01 11:47:52;;;;;;;1999.90;999.90;;;6.70;97.90;;;;;;5092042;28;20483;-68
2023/03/01 11:50:26;;;;;;;1999.90;999.90;;;6.90;98.40;;;;;;5090036;28;21771;-67
2023/03/01 11:53:14;;;;;;;1999.90;999.90;;;7.10;98.80;;;;;;5092689;28;20418;-68
2023/03/01 11:55:59;;;;;;;1999.90;999.90;;;7.20;97.30;;;;;;5072834;28;20404;-69
2023/03/01 11:58:52;;;;;;;1999.90;999.90;;;7.10;97.60;;;;;;5073290;28;20512;-69
2023/03/01 12:01:33;;;;;;;1999.90;999.90;;;7.10;97.70;;;;;;5070240;28;20427;-68
2023/03/01 12:04:35;;;;;;;1999.90;999.90;;;7.10;97.50;;;;;;5087499;28;20429;-68
2023/03/01 12:07:05;;;;;;;1999.90;999.90;;;7.10;97.40;;;;;;5072978;28;20442;-68
2023/03/01 12:09:59;;;;;;;1999.90;999.90;;;7.00;96.90;;;;;;5072733;28;20437;-68
2023/03/01 12:12:43;;;;;;;1999.90;999.90;;;7.20;97.40;;;;;;5072889;28;20900;-68
2023/03/01 12:15:40;;;;;;;1999.90;999.90;;;7.10;98.10;;;;;;5079655;28;20837;-68